logo
Search for airport 
image banner adimage banner adimage banner ad
image banner ad

YHSL - Horseshoe Lights Airport

Located in Peak Hill, Australia

ICAO - YHSL, IATA -

Data provided by Airmate  

General information

Coordinates: S25°20'45" E118°37'31"
Elevation is 1667 feet MSL.
Magnetic variation is 1° East
View others Airports in Western Australia

Operational data

Special qualification required
Current time UTC:
Current local time:
Weather at : - ( 0 km )
METAR: YPEA 241311Z AUTO 35006KT 6000 SHRA SCT008 BKN037 BKN055 12/10 Q1019
View NOTAMs / SUP AIP / TFR affecting this airport [VIEW]
Communications frequencies: [VIEW]

Runways:

RWY identifierQFULength (ft)Width (ft)SurfaceLDA (ft)
29295°530967DIRT
11115°530967DIRT

Airport contact information

Address: Peak Hill Australia

Satellite view of YHSL